sensor_id;sensor_type;location;lat;lon;timestamp;pressure;altitude;pressure_sealevel;temperature;humidity
21276;BME280;36472;52.170;20.884;2023-02-26T00:01:51;99039.41;;;2.80;85.09
21276;BME280;36472;52.170;20.884;2023-02-26T00:04:29;99043.53;;;2.84;85.71
21276;BME280;36472;52.170;20.884;2023-02-26T00:06:58;99049.97;;;2.77;84.84
21276;BME280;36472;52.170;20.884;2023-02-26T00:09:27;99052.50;;;2.78;84.45
21276;BME280;36472;52.170;20.884;2023-02-26T00:11:57;99059.69;;;2.73;84.34
21276;BME280;36472;52.170;20.884;2023-02-26T00:14:28;99060.16;;;2.80;84.40
21276;BME280;36472;52.170;20.884;2023-02-26T00:17:35;99064.44;;;2.81;83.89
21276;BME280;36472;52.170;20.884;2023-02-26T00:20:10;99076.66;;;2.79;82.91
21276;BME280;36472;52.170;20.884;2023-02-26T00:22:40;99071.88;;;2.71;82.49
21276;BME280;36472;52.170;20.884;2023-02-26T00:25:10;99075.66;;;2.66;82.07
21276;BME280;36472;52.170;20.884;2023-02-26T00:27:41;99084.19;;;2.68;81.77
21276;BME280;36472;52.170;20.884;2023-02-26T00:30:13;99081.34;;;2.72;82.14
21276;BME280;36472;52.170;20.884;2023-02-26T00:32:42;99090.72;;;2.75;81.82
21276;BME280;36472;52.170;20.884;2023-02-26T00:35:15;99090.72;;;2.75;81.01
21276;BME280;36472;52.170;20.884;2023-02-26T00:37:58;99092.63;;;2.71;81.12
21276;BME280;36472;52.170;20.884;2023-02-26T00:40:37;99096.59;;;2.78;81.86
21276;BME280;36472;52.170;20.884;2023-02-26T00:43:14;99097.56;;;2.60;80.72
21276;BME280;36472;52.170;20.884;2023-02-26T00:45:55;99107.34;;;2.55;79.79
21276;BME280;36472;52.170;20.884;2023-02-26T00:48:46;99112.09;;;2.47;79.97
21276;BME280;36472;52.170;20.884;2023-02-26T00:51:28;99107.00;;;2.45;79.21
21276;BME280;36472;52.170;20.884;2023-02-26T00:54:07;99112.03;;;2.48;79.37
21276;BME280;36472;52.170;20.884;2023-02-26T00:56:39;99117.00;;;2.35;77.66
21276;BME280;36472;52.170;20.884;2023-02-26T00:59:08;99123.19;;;2.33;77.45
21276;BME280;36472;52.170;20.884;2023-02-26T01:01:39;99118.91;;;2.32;77.72
21276;BME280;36472;52.170;20.884;2023-02-26T01:04:10;99131.72;;;2.35;77.34
21276;BME280;36472;52.170;20.884;2023-02-26T01:06:45;99127.63;;;2.31;77.10
21276;BME280;36472;52.170;20.884;2023-02-26T01:09:24;99139.09;;;2.42;77.77
21276;BME280;36472;52.170;20.884;2023-02-26T01:11:57;99137.28;;;2.45;77.39
21276;BME280;36472;52.170;20.884;2023-02-26T01:14:29;99133.56;;;2.33;77.32
21276;BME280;36472;52.170;20.884;2023-02-26T01:17:10;99140.25;;;2.37;76.85
21276;BME280;36472;52.170;20.884;2023-02-26T01:19:48;99147.22;;;2.36;77.09
21276;BME280;36472;52.170;20.884;2023-02-26T01:22:21;99151.38;;;2.39;76.51
21276;BME280;36472;52.170;20.884;2023-02-26T01:24:58;99148.72;;;2.40;76.93
21276;BME280;36472;52.170;20.884;2023-02-26T01:27:30;99153.97;;;2.39;76.65
21276;BME280;36472;52.170;20.884;2023-02-26T01:29:59;99163.59;;;2.37;77.36
21276;BME280;36472;52.170;20.884;2023-02-26T01:32:41;99165.91;;;2.26;77.22
21276;BME280;36472;52.170;20.884;2023-02-26T01:35:27;99183.44;;;2.38;77.58
21276;BME280;36472;52.170;20.884;2023-02-26T01:38:03;99191.97;;;2.40;77.52
21276;BME280;36472;52.170;20.884;2023-02-26T01:41:25;99186.78;;;2.40;77.24
21276;BME280;36472;52.170;20.884;2023-02-26T01:44:12;99192.88;;;2.39;76.80
21276;BME280;36472;52.170;20.884;2023-02-26T01:47:03;99200.50;;;2.42;76.52
21276;BME280;36472;52.170;20.884;2023-02-26T01:49:37;99199.28;;;2.32;76.94
21276;BME280;36472;52.170;20.884;2023-02-26T01:55:13;99224.53;;;2.28;76.86
21276;BME280;36472;52.170;20.884;2023-02-26T01:57:43;99237.41;;;2.30;77.33
21276;BME280;36472;52.170;20.884;2023-02-26T02:00:13;99240.84;;;2.30;77.10
21276;BME280;36472;52.170;20.884;2023-02-26T02:02:43;99241.84;;;2.28;77.27
21276;BME280;36472;52.170;20.884;2023-02-26T02:05:20;99255.72;;;2.27;77.10
21276;BME280;36472;52.170;20.884;2023-02-26T02:07:50;99264.31;;;2.27;76.33
21276;BME280;36472;52.170;20.884;2023-02-26T02:10:19;99270.50;;;2.24;76.29
21276;BME280;36472;52.170;20.884;2023-02-26T02:13:01;99278.06;;;2.29;76.08
21276;BME280;36472;52.170;20.884;2023-02-26T02:15:42;99278.91;;;2.30;75.49
21276;BME280;36472;52.170;20.884;2023-02-26T02:18:21;99280.72;;;2.28;75.52
21276;BME280;36472;52.170;20.884;2023-02-26T02:21:24;99289.13;;;2.33;75.86
21276;BME280;36472;52.170;20.884;2023-02-26T02:24:00;99296.72;;;2.18;75.29
21276;BME280;36472;52.170;20.884;2023-02-26T02:26:55;99298.13;;;2.26;74.99
21276;BME280;36472;52.170;20.884;2023-02-26T02:30:02;99303.31;;;2.26;75.13
21276;BME280;36472;52.170;20.884;2023-02-26T02:32:39;99307.72;;;2.23;74.47
21276;BME280;36472;52.170;20.884;2023-02-26T02:35:18;99307.34;;;2.31;74.30
21276;BME280;36472;52.170;20.884;2023-02-26T02:37:57;99317.72;;;2.31;74.42
21276;BME280;36472;52.170;20.884;2023-02-26T02:40:32;99313.50;;;2.29;73.80
21276;BME280;36472;52.170;20.884;2023-02-26T02:43:09;99322.16;;;2.29;73.90
21276;BME280;36472;52.170;20.884;2023-02-26T02:45:44;99316.63;;;2.18;73.86
21276;BME280;36472;52.170;20.884;2023-02-26T02:48:23;99321.59;;;2.22;73.04
21276;BME280;36472;52.170;20.884;2023-02-26T02:50:59;99317.78;;;2.12;72.95
21276;BME280;36472;52.170;20.884;2023-02-26T02:53:35;99326.16;;;2.17;72.53
21276;BME280;36472;52.170;20.884;2023-02-26T02:56:11;99320.34;;;2.12;72.54
21276;BME280;36472;52.170;20.884;2023-02-26T02:58:50;99329.50;;;2.19;73.55
21276;BME280;36472;52.170;20.884;2023-02-26T03:01:26;99336.00;;;2.28;73.57
21276;BME280;36472;52.170;20.884;2023-02-26T03:04:02;99337.00;;;2.26;73.85
21276;BME280;36472;52.170;20.884;2023-02-26T03:06:33;99345.63;;;2.26;72.25
21276;BME280;36472;52.170;20.884;2023-02-26T03:09:05;99348.34;;;2.23;72.25
21276;BME280;36472;52.170;20.884;2023-02-26T03:11:35;99359.56;;;2.23;72.05
21276;BME280;36472;52.170;20.884;2023-02-26T03:14:06;99368.13;;;2.26;72.84
21276;BME280;36472;52.170;20.884;2023-02-26T03:17:11;99371.22;;;2.32;72.84
21276;BME280;36472;52.170;20.884;2023-02-26T03:20:05;99368.91;;;2.45;73.05
21276;BME280;36472;52.170;20.884;2023-02-26T03:22:47;99380.50;;;2.38;72.61
21276;BME280;36472;52.170;20.884;2023-02-26T03:25:28;99393.47;;;2.38;73.34
21276;BME280;36472;52.170;20.884;2023-02-26T03:28:08;99390.72;;;2.41;72.71
21276;BME280;36472;52.170;20.884;2023-02-26T03:30:46;99400.09;;;2.43;72.40
21276;BME280;36472;52.170;20.884;2023-02-26T03:33:25;99405.78;;;2.52;72.88
21276;BME280;36472;52.170;20.884;2023-02-26T03:36:06;99408.97;;;2.57;73.16
21276;BME280;36472;52.170;20.884;2023-02-26T03:38:50;99409.25;;;2.51;72.21
21276;BME280;36472;52.170;20.884;2023-02-26T03:41:27;99417.28;;;2.46;72.68
21276;BME280;36472;52.170;20.884;2023-02-26T03:44:01;99418.88;;;2.49;72.78
21276;BME280;36472;52.170;20.884;2023-02-26T03:46:37;99424.28;;;2.44;73.05
21276;BME280;36472;52.170;20.884;2023-02-26T03:49:13;99427.47;;;2.49;73.01
21276;BME280;36472;52.170;20.884;2023-02-26T03:51:46;99436.81;;;2.53;72.68
21276;BME280;36472;52.170;20.884;2023-02-26T03:54:38;99441.88;;;2.56;73.21
21276;BME280;36472;52.170;20.884;2023-02-26T03:57:28;99442.91;;;2.52;72.46
21276;BME280;36472;52.170;20.884;2023-02-26T04:00:13;99442.34;;;2.46;72.46
21276;BME280;36472;52.170;20.884;2023-02-26T04:02:56;99449.94;;;2.50;72.95
21276;BME280;36472;52.170;20.884;2023-02-26T04:05:31;99448.94;;;2.53;73.19
21276;BME280;36472;52.170;20.884;2023-02-26T04:08:03;99450.69;;;2.52;72.78
21276;BME280;36472;52.170;20.884;2023-02-26T04:10:39;99459.41;;;2.51;73.30
21276;BME280;36472;52.170;20.884;2023-02-26T04:13:09;99461.00;;;2.54;72.90
21276;BME280;36472;52.170;20.884;2023-02-26T04:15:38;99465.97;;;2.58;72.90
21276;BME280;36472;52.170;20.884;2023-02-26T04:18:08;99468.72;;;2.55;72.85
21276;BME280;36472;52.170;20.884;2023-02-26T04:20:37;99467.00;;;2.54;73.46
21276;BME280;36472;52.170;20.884;2023-02-26T04:23:08;99472.69;;;2.62;73.64
21276;BME280;36472;52.170;20.884;2023-02-26T04:25:37;99477.13;;;2.60;73.49
21276;BME280;36472;52.170;20.884;2023-02-26T04:28:07;99480.47;;;2.62;73.86
21276;BME280;36472;52.170;20.884;2023-02-26T04:30:36;99482.22;;;2.62;73.54
21276;BME280;36472;52.170;20.884;2023-02-26T04:33:07;99483.28;;;2.58;74.32
21276;BME280;36472;52.170;20.884;2023-02-26T04:35:36;99481.53;;;2.58;73.74
21276;BME280;36472;52.170;20.884;2023-02-26T04:38:08;99487.63;;;2.57;74.07
21276;BME280;36472;52.170;20.884;2023-02-26T04:40:36;99483.19;;;2.59;74.46
21276;BME280;36472;52.170;20.884;2023-02-26T04:43:08;99485.16;;;2.54;74.44
21276;BME280;36472;52.170;20.884;2023-02-26T04:45:46;99492.88;;;2.56;74.72
21276;BME280;36472;52.170;20.884;2023-02-26T04:48:17;99497.38;;;2.52;74.90
21276;BME280;36472;52.170;20.884;2023-02-26T04:50:46;99493.47;;;2.43;74.70
21276;BME280;36472;52.170;20.884;2023-02-26T04:53:17;99498.72;;;2.42;75.57
21276;BME280;36472;52.170;20.884;2023-02-26T04:55:47;99505.53;;;2.45;75.10
21276;BME280;36472;52.170;20.884;2023-02-26T04:58:19;99510.41;;;2.51;75.58
21276;BME280;36472;52.170;20.884;2023-02-26T05:00:49;99516.72;;;2.45;75.33
21276;BME280;36472;52.170;20.884;2023-02-26T05:03:20;99509.91;;;2.42;75.28
21276;BME280;36472;52.170;20.884;2023-02-26T05:05:49;99520.59;;;2.36;75.49
21276;BME280;36472;52.170;20.884;2023-02-26T05:08:20;99514.06;;;2.28;74.93
21276;BME280;36472;52.170;20.884;2023-02-26T05:10:51;99526.69;;;2.35;75.10
21276;BME280;36472;52.170;20.884;2023-02-26T05:13:20;99539.88;;;2.31;75.03
21276;BME280;36472;52.170;20.884;2023-02-26T05:15:52;99541.53;;;2.32;75.14
21276;BME280;36472;52.170;20.884;2023-02-26T05:18:21;99539.22;;;2.26;75.32
21276;BME280;36472;52.170;20.884;2023-02-26T05:20:52;99552.03;;;2.29;74.79
21276;BME280;36472;52.170;20.884;2023-02-26T05:23:23;99552.66;;;2.34;74.63
21276;BME280;36472;52.170;20.884;2023-02-26T05:25:54;99562.16;;;2.35;74.70
21276;BME280;36472;52.170;20.884;2023-02-26T05:28:25;99549.25;;;2.33;75.03
21276;BME280;36472;52.170;20.884;2023-02-26T05:30:56;99559.63;;;2.33;74.69
21276;BME280;36472;52.170;20.884;2023-02-26T05:33:26;99571.38;;;2.21;75.26
21276;BME280;36472;52.170;20.884;2023-02-26T05:35:54;99579.78;;;2.27;75.63
21276;BME280;36472;52.170;20.884;2023-02-26T05:38:25;99592.88;;;2.23;75.30
21276;BME280;36472;52.170;20.884;2023-02-26T05:40:56;99592.41;;;2.15;74.87
21276;BME280;36472;52.170;20.884;2023-02-26T05:43:26;99602.19;;;2.09;75.27
21276;BME280;36472;52.170;20.884;2023-02-26T05:45:56;99607.03;;;2.16;75.14
21276;BME280;36472;52.170;20.884;2023-02-26T05:48:25;99626.34;;;2.09;72.81
21276;BME280;36472;52.170;20.884;2023-02-26T05:50:54;99616.88;;;1.87;71.61
21276;BME280;36472;52.170;20.884;2023-02-26T05:53:25;99629.19;;;1.82;71.45
21276;BME280;36472;52.170;20.884;2023-02-26T05:55:53;99638.66;;;1.83;71.49
21276;BME280;36472;52.170;20.884;2023-02-26T05:58:23;99640.66;;;1.77;71.14
21276;BME280;36472;52.170;20.884;2023-02-26T06:00:52;99643.28;;;1.75;71.70
21276;BME280;36472;52.170;20.884;2023-02-26T06:03:21;99649.25;;;1.77;70.98
21276;BME280;36472;52.170;20.884;2023-02-26T06:05:50;99653.53;;;1.78;70.24
21276;BME280;36472;52.170;20.884;2023-02-26T06:08:19;99660.94;;;1.65;69.36
21276;BME280;36472;52.170;20.884;2023-02-26T06:10:50;99664.81;;;1.55;68.38
21276;BME280;36472;52.170;20.884;2023-02-26T06:13:19;99661.16;;;1.39;67.69
21276;BME280;36472;52.170;20.884;2023-02-26T06:15:49;99673.13;;;1.41;66.33
21276;BME280;36472;52.170;20.884;2023-02-26T06:18:20;99685.53;;;1.33;65.42
21276;BME280;36472;52.170;20.884;2023-02-26T06:20:49;99689.03;;;1.32;65.92
21276;BME280;36472;52.170;20.884;2023-02-26T06:23:18;99692.34;;;1.36;64.23
21276;BME280;36472;52.170;20.884;2023-02-26T06:25:51;99694.44;;;1.26;64.81
21276;BME280;36472;52.170;20.884;2023-02-26T06:28:21;99704.00;;;1.24;64.65
21276;BME280;36472;52.170;20.884;2023-02-26T06:30:52;99716.84;;;1.27;65.03
21276;BME280;36472;52.170;20.884;2023-02-26T06:33:21;99716.78;;;1.28;66.26
21276;BME280;36472;52.170;20.884;2023-02-26T06:35:50;99717.78;;;1.24;65.09
21276;BME280;36472;52.170;20.884;2023-02-26T06:38:19;99731.69;;;1.22;65.77
21276;BME280;36472;52.170;20.884;2023-02-26T06:40:48;99728.66;;;1.34;65.96
21276;BME280;36472;52.170;20.884;2023-02-26T06:43:19;99729.31;;;1.39;64.92
21276;BME280;36472;52.170;20.884;2023-02-26T06:45:48;99730.28;;;1.37;64.78
21276;BME280;36472;52.170;20.884;2023-02-26T06:48:18;99731.28;;;1.33;65.36
21276;BME280;36472;52.170;20.884;2023-02-26T06:50:47;99744.91;;;1.38;64.49
21276;BME280;36472;52.170;20.884;2023-02-26T06:53:16;99749.13;;;1.40;64.75
21276;BME280;36472;52.170;20.884;2023-02-26T06:55:46;99753.19;;;1.47;64.95
21276;BME280;36472;52.170;20.884;2023-02-26T06:58:19;99755.50;;;1.54;65.36
21276;BME280;36472;52.170;20.884;2023-02-26T07:00:48;99761.31;;;1.60;65.97
21276;BME280;36472;52.170;20.884;2023-02-26T07:03:18;99767.28;;;1.62;64.76
21276;BME280;36472;52.170;20.884;2023-02-26T07:05:47;99780.91;;;1.67;64.83
21276;BME280;36472;52.170;20.884;2023-02-26T07:08:16;99786.88;;;1.70;63.56
21276;BME280;36472;52.170;20.884;2023-02-26T07:10:45;99803.81;;;1.78;63.48
21276;BME280;36472;52.170;20.884;2023-02-26T07:13:16;99798.69;;;1.77;62.29
21276;BME280;36472;52.170;20.884;2023-02-26T07:15:47;99802.09;;;1.77;62.14
21276;BME280;36472;52.170;20.884;2023-02-26T07:18:16;99807.41;;;1.74;61.99
21276;BME280;36472;52.170;20.884;2023-02-26T07:20:47;99810.59;;;1.81;62.24
21276;BME280;36472;52.170;20.884;2023-02-26T07:23:17;99816.41;;;1.87;61.80
21276;BME280;36472;52.170;20.884;2023-02-26T07:25:48;99814.84;;;1.83;61.20
21276;BME280;36472;52.170;20.884;2023-02-26T07:28:17;99827.84;;;1.82;61.04
21276;BME280;36472;52.170;20.884;2023-02-26T07:30:48;99820.19;;;1.79;60.45
21276;BME280;36472;52.170;20.884;2023-02-26T07:33:17;99827.78;;;1.83;60.87
21276;BME280;36472;52.170;20.884;2023-02-26T07:35:46;99828.28;;;1.93;62.03
21276;BME280;36472;52.170;20.884;2023-02-26T07:38:15;99831.56;;;1.98;60.42
21276;BME280;36472;52.170;20.884;2023-02-26T07:40:46;99839.31;;;1.98;60.14
21276;BME280;36472;52.170;20.884;2023-02-26T07:43:15;99847.72;;;2.05;60.02
21276;BME280;36472;52.170;20.884;2023-02-26T07:45:44;99855.28;;;2.10;61.15
21276;BME280;36472;52.170;20.884;2023-02-26T07:48:15;99855.84;;;2.18;60.31
21276;BME280;36472;52.170;20.884;2023-02-26T07:50:44;99862.22;;;2.31;61.36
21276;BME280;36472;52.170;20.884;2023-02-26T07:53:13;99862.41;;;2.27;59.91
21276;BME280;36472;52.170;20.884;2023-02-26T07:55:43;99871.28;;;2.21;59.01
21276;BME280;36472;52.170;20.884;2023-02-26T07:58:12;99871.28;;;2.21;60.26
21276;BME280;36472;52.170;20.884;2023-02-26T08:00:41;99862.34;;;2.28;59.82
21276;BME280;36472;52.170;20.884;2023-02-26T08:03:10;99870.28;;;2.23;58.71
21276;BME280;36472;52.170;20.884;2023-02-26T08:05:40;99872.50;;;2.12;58.63
21276;BME280;36472;52.170;20.884;2023-02-26T08:08:10;99880.16;;;2.15;59.38
21276;BME280;36472;52.170;20.884;2023-02-26T08:10:39;99884.13;;;2.02;59.44
21276;BME280;36472;52.170;20.884;2023-02-26T08:13:09;99884.72;;;2.09;58.91
21276;BME280;36472;52.170;20.884;2023-02-26T08:15:38;99891.47;;;2.13;59.58
21276;BME280;36472;52.170;20.884;2023-02-26T08:18:11;99902.38;;;2.21;60.56
21276;BME280;36472;52.170;20.884;2023-02-26T08:20:41;99905.75;;;2.23;60.30
21276;BME280;36472;52.170;20.884;2023-02-26T08:23:10;99912.59;;;2.26;58.83
21276;BME280;36472;52.170;20.884;2023-02-26T08:25:39;99919.88;;;2.16;59.25
21276;BME280;36472;52.170;20.884;2023-02-26T08:28:09;99926.72;;;2.17;60.17
21276;BME280;36472;52.170;20.884;2023-02-26T08:30:37;99932.88;;;2.14;59.77
21276;BME280;36472;52.170;20.884;2023-02-26T08:33:06;99925.56;;;2.26;61.12
21276;BME280;36472;52.170;20.884;2023-02-26T08:35:35;99931.31;;;2.32;60.14
21276;BME280;36472;52.170;20.884;2023-02-26T08:38:07;99926.28;;;2.29;59.43
21276;BME280;36472;52.170;20.884;2023-02-26T08:40:39;99937.38;;;2.33;59.63
21276;BME280;36472;52.170;20.884;2023-02-26T08:43:08;99944.06;;;2.38;59.98
21276;BME280;36472;52.170;20.884;2023-02-26T08:45:38;99955.75;;;2.27;59.44
21276;BME280;36472;52.170;20.884;2023-02-26T08:48:07;99954.53;;;2.13;59.23
21276;BME280;36472;52.170;20.884;2023-02-26T08:50:37;99952.97;;;2.09;58.67
21276;BME280;36472;52.170;20.884;2023-02-26T08:53:08;99968.41;;;2.12;58.63
21276;BME280;36472;52.170;20.884;2023-02-26T08:55:37;99977.75;;;2.16;58.89
21276;BME280;36472;52.170;20.884;2023-02-26T08:58:06;99982.72;;;2.22;60.52
21276;BME280;36472;52.170;20.884;2023-02-26T09:00:35;99987.78;;;2.26;60.27
21276;BME280;36472;52.170;20.884;2023-02-26T09:03:04;99989.25;;;2.33;59.48
21276;BME280;36472;52.170;20.884;2023-02-26T09:05:34;99991.16;;;2.28;59.05
21276;BME280;36472;52.170;20.884;2023-02-26T09:08:03;99995.78;;;2.19;59.02
21276;BME280;36472;52.170;20.884;2023-02-26T09:10:33;100010.66;;;2.14;58.68
21276;BME280;36472;52.170;20.884;2023-02-26T09:13:02;100011.50;;;2.15;59.06
21276;BME280;36472;52.170;20.884;2023-02-26T09:15:31;100017.31;;;2.21;58.76
21276;BME280;36472;52.170;20.884;2023-02-26T09:18:01;100022.34;;;2.26;59.12
21276;BME280;36472;52.170;20.884;2023-02-26T09:20:30;100033.53;;;2.27;59.31
21276;BME280;36472;52.170;20.884;2023-02-26T09:22:59;100029.13;;;2.29;58.54
21276;BME280;36472;52.170;20.884;2023-02-26T09:25:28;100035.69;;;2.39;59.81
21276;BME280;36472;52.170;20.884;2023-02-26T09:27:58;100028.56;;;2.44;58.71
21276;BME280;36472;52.170;20.884;2023-02-26T09:30:27;100033.53;;;2.50;58.04
21276;BME280;36472;52.170;20.884;2023-02-26T09:32:56;100032.50;;;2.54;58.65
21276;BME280;36472;52.170;20.884;2023-02-26T09:35:25;100045.31;;;2.59;58.57
21276;BME280;36472;52.170;20.884;2023-02-26T09:37:55;100045.16;;;2.64;58.57
21276;BME280;36472;52.170;20.884;2023-02-26T09:40:39;100054.81;;;2.60;57.72
21276;BME280;36472;52.170;20.884;2023-02-26T09:43:46;100062.84;;;2.52;57.50
21276;BME280;36472;52.170;20.884;2023-02-26T09:46:30;100067.31;;;2.49;57.55
21276;BME280;36472;52.170;20.884;2023-02-26T09:49:18;100069.75;;;2.53;58.25
21276;BME280;36472;52.170;20.884;2023-02-26T09:51:57;100071.09;;;2.64;59.12
21276;BME280;36472;52.170;20.884;2023-02-26T09:54:35;100073.53;;;2.68;59.02
21276;BME280;36472;52.170;20.884;2023-02-26T09:57:16;100083.97;;;2.67;58.54
21276;BME280;36472;52.170;20.884;2023-02-26T09:59:52;100074.97;;;2.75;59.44
21276;BME280;36472;52.170;20.884;2023-02-26T10:02:36;100085.97;;;2.82;58.74
21276;BME280;36472;52.170;20.884;2023-02-26T10:05:19;100089.34;;;2.84;58.74
21276;BME280;36472;52.170;20.884;2023-02-26T10:07:57;100090.28;;;2.81;59.46
21276;BME280;36472;52.170;20.884;2023-02-26T10:10:37;100099.00;;;2.80;58.62
21276;BME280;36472;52.170;20.884;2023-02-26T10:13:22;100092.53;;;2.69;59.13
21276;BME280;36472;52.170;20.884;2023-02-26T10:16:03;100107.41;;;2.64;59.50
21276;BME280;36472;52.170;20.884;2023-02-26T10:18:39;100106.63;;;2.61;59.91
21276;BME280;36472;52.170;20.884;2023-02-26T10:21:19;100110.84;;;2.64;59.88
21276;BME280;36472;52.170;20.884;2023-02-26T10:23:55;100102.69;;;2.51;59.50
21276;BME280;36472;52.170;20.884;2023-02-26T10:26:29;100111.31;;;2.52;59.42
21276;BME280;36472;52.170;20.884;2023-02-26T10:29:10;100104.47;;;2.49;59.95
21276;BME280;36472;52.170;20.884;2023-02-26T10:32:05;100116.09;;;2.62;60.15
21276;BME280;36472;52.170;20.884;2023-02-26T10:34:39;100117.44;;;2.73;60.01
21276;BME280;36472;52.170;20.884;2023-02-26T10:37:18;100118.00;;;2.81;59.85
21276;BME280;36472;52.170;20.884;2023-02-26T10:39:52;100124.81;;;2.61;60.56
21276;BME280;36472;52.170;20.884;2023-02-26T10:42:42;100133.38;;;2.87;59.99
21276;BME280;36472;52.170;20.884;2023-02-26T10:45:29;100142.25;;;2.80;60.12
21276;BME280;36472;52.170;20.884;2023-02-26T10:48:23;100139.56;;;2.83;60.20
21276;BME280;36472;52.170;20.884;2023-02-26T10:50:58;100144.38;;;2.70;59.33
21276;BME280;36472;52.170;20.884;2023-02-26T10:53:30;100151.28;;;2.70;59.22
21276;BME280;36472;52.170;20.884;2023-02-26T10:56:07;100155.06;;;2.61;58.31
21276;BME280;36472;52.170;20.884;2023-02-26T10:58:38;100155.78;;;2.65;59.02
21276;BME280;36472;52.170;20.884;2023-02-26T11:01:16;100157.16;;;2.75;58.28
21276;BME280;36472;52.170;20.884;2023-02-26T11:03:54;100160.25;;;2.85;58.62
21276;BME280;36472;52.170;20.884;2023-02-26T11:06:29;100162.22;;;3.02;58.48
21276;BME280;36472;52.170;20.884;2023-02-26T11:09:01;100167.53;;;2.98;57.13
21276;BME280;36472;52.170;20.884;2023-02-26T11:11:41;100169.13;;;3.03;56.05
21276;BME280;36472;52.170;20.884;2023-02-26T11:14:10;100167.31;;;3.05;56.05
21276;BME280;36472;52.170;20.884;2023-02-26T11:16:46;100185.13;;;3.14;55.69
21276;BME280;36472;52.170;20.884;2023-02-26T11:19:24;100183.69;;;3.07;56.23
21276;BME280;36472;52.170;20.884;2023-02-26T11:21:55;100188.50;;;3.16;54.23
21276;BME280;36472;52.170;20.884;2023-02-26T11:24:34;100181.66;;;3.15;53.35
21276;BME280;36472;52.170;20.884;2023-02-26T11:27:11;100186.72;;;3.18;53.29
21276;BME280;36472;52.170;20.884;2023-02-26T11:29:46;100190.94;;;2.97;52.94
21276;BME280;36472;52.170;20.884;2023-02-26T11:32:18;100198.53;;;3.03;52.81
21276;BME280;36472;52.170;20.884;2023-02-26T11:34:50;100198.16;;;3.12;52.96
21276;BME280;36472;52.170;20.884;2023-02-26T11:37:23;100201.78;;;3.08;52.65
21276;BME280;36472;52.170;20.884;2023-02-26T11:39:59;100210.88;;;3.20;53.27
21276;BME280;36472;52.170;20.884;2023-02-26T11:42:37;100216.69;;;3.27;51.97
21276;BME280;36472;52.170;20.884;2023-02-26T11:45:15;100213.16;;;3.28;52.01
21276;BME280;36472;52.170;20.884;2023-02-26T11:47:47;100220.97;;;3.28;52.20
21276;BME280;36472;52.170;20.884;2023-02-26T11:50:22;100217.41;;;3.30;51.85
21276;BME280;36472;52.170;20.884;2023-02-26T11:52:56;100226.91;;;3.31;52.78
21276;BME280;36472;52.170;20.884;2023-02-26T11:55:31;100226.78;;;3.34;52.84
21276;BME280;36472;52.170;20.884;2023-02-26T11:58:00;100227.81;;;3.30;52.11
21276;BME280;36472;52.170;20.884;2023-02-26T12:00:36;100240.22;;;3.22;52.44
21276;BME280;36472;52.170;20.884;2023-02-26T12:03:14;100239.66;;;3.14;53.08
21276;BME280;36472;52.170;20.884;2023-02-26T12:05:45;100241.59;;;3.09;53.39
21276;BME280;36472;52.170;20.884;2023-02-26T12:08:20;100250.97;;;3.13;53.88
21276;BME280;36472;52.170;20.884;2023-02-26T12:11:15;100248.63;;;3.05;53.84
21276;BME280;36472;52.170;20.884;2023-02-26T12:14:04;100264.84;;;3.12;54.16
21276;BME280;36472;52.170;20.884;2023-02-26T12:16:48;100258.97;;;3.07;54.56
21276;BME280;36472;52.170;20.884;2023-02-26T12:19:37;100270.94;;;3.11;54.37
21276;BME280;36472;52.170;20.884;2023-02-26T12:22:37;100266.41;;;3.16;54.82
21276;BME280;36472;52.170;20.884;2023-02-26T12:25:40;100269.94;;;3.15;54.70
21276;BME280;36472;52.170;20.884;2023-02-26T12:28:47;100259.44;;;3.18;55.94
21276;BME280;36472;52.170;20.884;2023-02-26T12:31:42;100272.03;;;3.29;55.08
21276;BME280;36472;52.170;20.884;2023-02-26T12:34:37;100272.81;;;3.31;55.08
21276;BME280;36472;52.170;20.884;2023-02-26T12:37:31;100286.47;;;3.36;55.02
21276;BME280;36472;52.170;20.884;2023-02-26T12:40:18;100279.81;;;3.29;53.58
21276;BME280;36472;52.170;20.884;2023-02-26T12:43:08;100278.47;;;3.18;53.63
21276;BME280;36472;52.170;20.884;2023-02-26T12:45:48;100288.78;;;3.20;53.39
21276;BME280;36472;52.170;20.884;2023-02-26T12:49:07;100288.75;;;3.22;53.10
21276;BME280;36472;52.170;20.884;2023-02-26T12:52:03;100294.38;;;3.33;54.60
21276;BME280;36472;52.170;20.884;2023-02-26T12:55:06;100296.91;;;3.34;53.25
21276;BME280;36472;52.170;20.884;2023-02-26T12:58:01;100298.56;;;3.37;52.58
21276;BME280;36472;52.170;20.884;2023-02-26T13:00:59;100299.47;;;3.36;52.99
21276;BME280;36472;52.170;20.884;2023-02-26T13:04:17;100299.88;;;3.49;53.31
21276;BME280;36472;52.170;20.884;2023-02-26T13:07:37;100304.19;;;3.48;52.50
21276;BME280;36472;52.170;20.884;2023-02-26T13:10:30;100302.00;;;3.61;52.07
21276;BME280;36472;52.170;20.884;2023-02-26T13:13:24;100314.16;;;3.61;52.54
21276;BME280;36472;52.170;20.884;2023-02-26T13:16:14;100308.75;;;3.65;51.03
21276;BME280;36472;52.170;20.884;2023-02-26T13:18:59;100312.09;;;3.69;50.43
21276;BME280;36472;52.170;20.884;2023-02-26T13:21:36;100302.44;;;3.72;50.92
21276;BME280;36472;52.170;20.884;2023-02-26T13:24:11;100307.63;;;3.72;50.52
21276;BME280;36472;52.170;20.884;2023-02-26T13:26:46;100317.78;;;3.79;51.55
21276;BME280;36472;52.170;20.884;2023-02-26T13:29:21;100324.81;;;3.77;51.71
21276;BME280;36472;52.170;20.884;2023-02-26T13:31:58;100332.75;;;3.72;50.46
21276;BME280;36472;52.170;20.884;2023-02-26T13:34:40;100340.13;;;3.61;51.48
21276;BME280;36472;52.170;20.884;2023-02-26T13:37:23;100323.41;;;3.68;51.14
21276;BME280;36472;52.170;20.884;2023-02-26T13:40:14;100326.50;;;3.78;50.84
21276;BME280;36472;52.170;20.884;2023-02-26T13:42:59;100337.38;;;3.87;51.09
21276;BME280;36472;52.170;20.884;2023-02-26T13:45:55;100331.63;;;3.79;51.21
21276;BME280;36472;52.170;20.884;2023-02-26T13:48:43;100343.00;;;3.77;51.13